Terminal Aerodrome Forecast
Issued by NWS Birmingham, AL

Home | Current Version | Previous Version | Text Only | Print | Product List | Glossary On
Versions: 1 2 3 4 5 6 7 8 9 10 11 12 13 14 15 16 17 18
000
FTUS44 KBMX 291737
TAFBHM
TAF
KBHM 291737Z 2918/3018 35008KT 6SM SHRA VCTS BKN050CB
      TEMPO 2918/2921 VRB12G25KT 3SM TSRA
     FM300100 36004KT P6SM SCT040 SCT100 SCT200=

USA.gov is the U.S. government's official web portal to all federal, state and local government web resources and services.